createdAt,value
2018-04-08T00:00:05.626Z,157.70
2018-04-08T00:01:11.952Z,79.00
2018-04-08T00:02:18.375Z,48.78
2018-04-08T00:03:27.150Z,53.53
2018-04-08T00:04:34.035Z,58.58
2018-04-08T00:05:40.224Z,56.40
2018-04-08T00:06:47.748Z,43.00
2018-04-08T00:07:54.538Z,68.05
2018-04-08T00:09:01.781Z,38.63
2018-04-08T00:10:08.411Z,50.08
2018-04-08T00:11:15.470Z,33.33
2018-04-08T00:12:24.915Z,30.65
2018-04-08T00:13:32.685Z,37.00
2018-04-08T00:14:39.135Z,52.53
2018-04-08T00:15:45.310Z,34.47
2018-04-08T00:16:52.734Z,37.83
2018-04-08T00:17:58.987Z,30.12
2018-04-08T00:19:05.360Z,37.65
2018-04-08T00:20:13.485Z,26.42
2018-04-08T00:21:21.886Z,19.67
2018-04-08T00:22:28.821Z,14.25
2018-04-08T00:23:36.062Z,22.60
2018-04-08T00:24:44.668Z,22.23
2018-04-08T00:25:50.776Z,29.73
2018-04-08T00:26:57.604Z,35.42
2018-04-08T00:28:04.172Z,45.90
2018-04-08T00:29:10.426Z,25.08
2018-04-08T00:30:16.852Z,45.72
2018-04-08T00:31:23.492Z,98.32
2018-04-08T00:32:29.656Z,47.33
2018-04-08T00:33:36.166Z,38.80
2018-04-08T00:34:43.573Z,61.53
2018-04-08T00:35:50.371Z,47.28
2018-04-08T00:36:57.218Z,51.83
2018-04-08T00:38:03.863Z,39.53
2018-04-08T00:39:11.733Z,29.58
2018-04-08T00:40:18.366Z,39.97
2018-04-08T00:41:24.571Z,64.87
2018-04-08T00:42:32.632Z,91.25
2018-04-08T00:43:39.206Z,85.97
2018-04-08T00:44:45.515Z,92.25
2018-04-08T00:45:52.321Z,48.53
2018-04-08T00:46:58.602Z,33.92
2018-04-08T00:48:04.941Z,84.70
2018-04-08T00:49:12.040Z,41.58
2018-04-08T00:50:20.855Z,30.10
2018-04-08T00:51:29.031Z,125.45
2018-04-08T00:52:36.441Z,91.47
2018-04-08T00:53:42.869Z,70.07
2018-04-08T00:54:50.099Z,45.97
2018-04-08T00:55:56.690Z,33.00
2018-04-08T00:57:04.319Z,80.93
2018-04-08T00:58:11.008Z,31.45
2018-04-08T00:59:17.588Z,25.03
2018-04-08T01:00:23.799Z,29.37
2018-04-08T01:01:31.164Z,34.03
2018-04-08T01:02:37.601Z,31.12
2018-04-08T01:03:45.232Z,45.75
2018-04-08T01:04:51.899Z,50.30
2018-04-08T01:05:58.036Z,31.73
2018-04-08T01:07:04.474Z,39.05
2018-04-08T01:08:11.779Z,35.25
2018-04-08T01:09:17.992Z,32.53
2018-04-08T01:10:25.131Z,29.57
2018-04-08T01:11:33.405Z,33.23
2018-04-08T01:12:41.606Z,42.53
2018-04-08T01:13:47.755Z,48.47
2018-04-08T01:14:54.057Z,24.17
2018-04-08T01:16:00.332Z,23.35
2018-04-08T01:17:06.613Z,21.05
2018-04-08T01:18:14.811Z,20.62
2018-04-08T01:19:22.437Z,22.77
2018-04-08T01:20:28.909Z,19.27
2018-04-08T01:21:35.224Z,28.90
2018-04-08T01:22:42.202Z,18.83
2018-04-08T01:23:50.723Z,16.55
2018-04-08T01:24:57.513Z,20.00
2018-04-08T01:26:03.583Z,21.62
2018-04-08T01:27:09.409Z,17.05
2018-04-08T01:28:15.504Z,16.45
2018-04-08T01:29:23.692Z,18.75
2018-04-08T01:30:30.242Z,14.35
2018-04-08T01:31:37.706Z,19.37
2018-04-08T01:32:43.460Z,17.63
2018-04-08T01:33:49.349Z,15.77
2018-04-08T01:34:55.484Z,17.70
2018-04-08T01:36:01.546Z,19.50
2018-04-08T01:37:09.382Z,22.17
2018-04-08T01:38:15.850Z,21.42
2018-04-08T01:39:22.032Z,17.50
2018-04-08T01:40:27.533Z,19.37
2018-04-08T01:41:34.330Z,61.83
2018-04-08T01:42:40.657Z,35.20
2018-04-08T01:43:46.791Z,20.88
2018-04-08T01:44:55.672Z,26.17
2018-04-08T01:46:03.991Z,44.33
2018-04-08T01:47:10.270Z,34.30
2018-04-08T01:48:17.650Z,25.80
2018-04-08T01:49:23.703Z,23.98
2018-04-08T01:50:29.840Z,17.27
2018-04-08T01:51:35.602Z,17.60
2018-04-08T01:52:42.033Z,32.83
2018-04-08T01:53:47.875Z,27.70
2018-04-08T01:54:53.530Z,14.63
2018-04-08T01:56:00.821Z,15.07
2018-04-08T01:57:07.066Z,31.75
2018-04-08T01:58:14.160Z,29.75
2018-04-08T01:59:20.941Z,15.38
2018-04-08T02:00:28.759Z,19.85
2018-04-08T02:01:37.558Z,17.73
2018-04-08T02:02:44.466Z,17.80
2018-04-08T02:03:50.180Z,13.25
2018-04-08T02:04:55.856Z,13.57
2018-04-08T02:06:02.400Z,12.75
2018-04-08T02:07:08.178Z,15.38
2018-04-08T02:08:14.691Z,13.45
2018-04-08T02:09:20.303Z,20.40
2018-04-08T02:10:25.929Z,14.98
2018-04-08T02:11:31.531Z,14.10
2018-04-08T02:12:38.076Z,13.20
2018-04-08T02:13:44.599Z,14.32
2018-04-08T02:14:51.450Z,17.08
2018-04-08T02:15:57.067Z,15.57
2018-04-08T02:17:03.873Z,13.88
2018-04-08T02:18:11.222Z,13.27
2018-04-08T02:19:17.122Z,12.60
2018-04-08T02:20:22.770Z,15.55
2018-04-08T02:21:28.416Z,34.35
2018-04-08T02:22:34.141Z,23.17
2018-04-08T02:23:39.790Z,21.90
2018-04-08T02:24:45.358Z,25.27
2018-04-08T02:25:51.193Z,30.40
2018-04-08T02:26:57.131Z,28.23
2018-04-08T02:28:03.578Z,19.02
2018-04-08T02:29:10.641Z,18.50
2018-04-08T02:30:16.488Z,19.95
2018-04-08T02:31:22.462Z,19.65
2018-04-08T02:32:28.333Z,24.48
2018-04-08T02:33:34.513Z,19.95
2018-04-08T02:34:40.149Z,21.48
2018-04-08T02:35:47.479Z,12.30
2018-04-08T02:36:53.012Z,23.17
2018-04-08T02:37:58.581Z,16.92
2018-04-08T02:39:04.374Z,14.18
2018-04-08T02:40:10.042Z,18.45
2018-04-08T02:41:15.755Z,13.68
2018-04-08T02:42:21.273Z,15.13
2018-04-08T02:43:26.756Z,19.12
2018-04-08T02:44:32.631Z,13.73
2018-04-08T02:45:40.071Z,20.25
2018-04-08T02:46:45.652Z,19.65
2018-04-08T02:47:52.294Z,25.50
2018-04-08T02:49:01.016Z,24.35
2018-04-08T02:50:07.544Z,25.00
2018-04-08T02:51:13.065Z,26.87
2018-04-08T02:52:18.624Z,24.20
2018-04-08T02:53:24.432Z,28.77
2018-04-08T02:54:31.711Z,25.00
2018-04-08T02:55:38.044Z,16.52
2018-04-08T02:56:43.570Z,20.58
2018-04-08T02:57:49.911Z,22.48
2018-04-08T02:58:57.756Z,22.27
2018-04-08T03:00:03.455Z,20.70
2018-04-08T03:01:10.731Z,18.55
2018-04-08T03:02:16.603Z,18.67
2018-04-08T03:03:22.331Z,15.48
2018-04-08T03:04:28.239Z,20.30
2018-04-08T03:05:34.361Z,21.50
2018-04-08T03:06:39.884Z,19.27
2018-04-08T03:07:45.411Z,20.70
2018-04-08T03:08:52.472Z,21.37
2018-04-08T03:09:58.909Z,22.00
2018-04-08T03:11:04.624Z,19.80
2018-04-08T03:12:10.116Z,18.85
2018-04-08T03:13:16.474Z,16.30
2018-04-08T03:14:22.134Z,15.63
2018-04-08T03:15:28.514Z,16.58
2018-04-08T03:16:34.138Z,11.15
2018-04-08T03:17:39.817Z,21.60
2018-04-08T03:18:45.895Z,16.45
2018-04-08T03:19:52.305Z,16.20
2018-04-08T03:20:57.768Z,11.12
2018-04-08T03:22:04.110Z,12.02
2018-04-08T03:23:09.529Z,12.45
2018-04-08T03:24:15.190Z,19.02
2018-04-08T03:25:20.762Z,14.05
2018-04-08T03:26:26.411Z,13.40
2018-04-08T03:27:32.785Z,16.48
2018-04-08T03:28:39.023Z,18.55
2018-04-08T03:29:44.486Z,32.20
2018-04-08T03:30:49.992Z,30.40
2018-04-08T03:31:56.836Z,23.98
2018-04-08T03:33:03.369Z,22.23
2018-04-08T03:34:09.056Z,23.52
2018-04-08T03:35:14.482Z,27.73
2018-04-08T03:36:20.228Z,25.50
2018-04-08T03:37:25.650Z,18.33
2018-04-08T03:38:31.675Z,25.23
2018-04-08T03:39:37.135Z,24.55
2018-04-08T03:40:42.547Z,16.40
2018-04-08T03:41:48.010Z,15.13
2018-04-08T03:42:53.462Z,17.62
2018-04-08T03:43:58.874Z,11.55
2018-04-08T03:45:04.391Z,16.00
2018-04-08T03:46:09.887Z,17.08
2018-04-08T03:47:22.396Z,12.93
2018-04-08T03:48:28.900Z,15.65
2018-04-08T03:49:38.205Z,12.15
2018-04-08T03:50:44.512Z,14.60
2018-04-08T03:51:50.262Z,17.15
2018-04-08T03:52:55.795Z,21.58
2018-04-08T03:54:01.336Z,27.73
2018-04-08T03:55:06.764Z,14.53
2018-04-08T03:56:14.009Z,47.28
2018-04-08T03:57:19.696Z,86.57
2018-04-08T03:58:25.697Z,52.97
2018-04-08T03:59:32.703Z,26.30
2018-04-08T04:00:38.473Z,21.87
2018-04-08T04:01:45.178Z,24.42
2018-04-08T04:02:51.852Z,24.00
2018-04-08T04:03:57.713Z,18.73
2018-04-08T04:05:03.293Z,20.58
2018-04-08T04:06:09.028Z,23.75
2018-04-08T04:07:15.065Z,18.92
2018-04-08T04:08:20.661Z,15.88
2018-04-08T04:09:26.614Z,13.23
2018-04-08T04:10:33.304Z,19.17
2018-04-08T04:11:39.668Z,16.95
2018-04-08T04:12:45.221Z,18.50
2018-04-08T04:13:50.984Z,15.10
2018-04-08T04:14:56.729Z,17.60
2018-04-08T04:16:03.471Z,16.15
2018-04-08T04:17:09.606Z,13.15
2018-04-08T04:18:21.223Z,17.23
2018-04-08T04:19:33.056Z,14.03
2018-04-08T04:20:45.554Z,18.52
2018-04-08T04:21:56.356Z,20.27
2018-04-08T04:23:07.210Z,18.60
2018-04-08T04:24:20.001Z,16.10
2018-04-08T04:25:30.136Z,18.08
2018-04-08T04:26:36.694Z,16.02
2018-04-08T04:27:42.209Z,13.80
2018-04-08T04:28:47.705Z,15.85
2018-04-08T04:29:54.510Z,43.47
2018-04-08T04:31:00.042Z,28.60
2018-04-08T04:32:07.339Z,19.23
2018-04-08T04:33:12.824Z,26.93
2018-04-08T04:34:18.390Z,22.40
2018-04-08T04:35:23.996Z,18.55
2018-04-08T04:36:29.611Z,20.73
2018-04-08T04:37:35.837Z,22.15
2018-04-08T04:38:41.244Z,26.67
2018-04-08T04:39:46.671Z,15.87
2018-04-08T04:40:52.277Z,12.13
2018-04-08T04:41:57.732Z,13.10
2018-04-08T04:43:03.188Z,13.95
2018-04-08T04:44:08.862Z,15.55
2018-04-08T04:45:14.805Z,13.73
2018-04-08T04:46:20.915Z,14.82
2018-04-08T04:47:26.329Z,19.52
2018-04-08T04:48:31.798Z,18.60
2018-04-08T04:49:38.403Z,20.73
2018-04-08T04:50:45.066Z,26.42
2018-04-08T04:51:51.862Z,22.35
2018-04-08T04:52:57.255Z,27.40
2018-04-08T04:54:02.836Z,27.80
2018-04-08T04:55:09.167Z,20.27
2018-04-08T04:56:14.758Z,23.35
2018-04-08T04:57:20.298Z,20.02
2018-04-08T04:58:25.686Z,17.55
2018-04-08T04:59:31.409Z,16.25
2018-04-08T05:00:36.981Z,26.70
2018-04-08T05:01:42.465Z,21.55
2018-04-08T05:02:48.403Z,24.05
2018-04-08T05:03:54.673Z,17.50
2018-04-08T05:05:00.523Z,20.25
2018-04-08T05:06:06.750Z,18.58
2018-04-08T05:07:12.292Z,12.13
2018-04-08T05:08:18.085Z,16.15
2018-04-08T05:09:24.282Z,14.10
2018-04-08T05:10:30.815Z,17.48
2018-04-08T05:11:36.219Z,18.40
2018-04-08T05:12:41.741Z,15.23
2018-04-08T05:13:47.786Z,17.23
2018-04-08T05:14:53.467Z,15.90
2018-04-08T05:15:59.309Z,16.42
2018-04-08T05:17:04.861Z,14.30
2018-04-08T05:18:11.229Z,11.23
2018-04-08T05:19:17.578Z,13.52
2018-04-08T05:20:23.236Z,16.45
2018-04-08T05:21:29.697Z,14.60
2018-04-08T05:22:35.182Z,16.87
2018-04-08T05:23:40.765Z,17.67
2018-04-08T05:24:46.180Z,15.75
2018-04-08T05:25:51.694Z,16.15
2018-04-08T05:26:57.356Z,17.15
2018-04-08T05:28:03.004Z,14.30
2018-04-08T05:29:08.446Z,20.62
2018-04-08T05:30:13.887Z,21.77
2018-04-08T05:31:19.319Z,14.13
2018-04-08T05:32:25.097Z,17.83
2018-04-08T05:33:31.916Z,20.23
2018-04-08T05:34:37.439Z,100.75
2018-04-08T05:35:43.063Z,64.68
2018-04-08T05:36:49.113Z,33.80
2018-04-08T05:37:55.829Z,18.93
2018-04-08T05:39:02.058Z,21.00
2018-04-08T05:40:07.668Z,18.50
2018-04-08T05:41:13.316Z,18.50
2018-04-08T05:42:19.129Z,13.40
2018-04-08T05:43:25.057Z,18.58
2018-04-08T05:44:34.749Z,15.57
2018-04-08T05:45:42.109Z,18.33
2018-04-08T05:46:48.145Z,17.23
2018-04-08T05:47:55.890Z,18.27
2018-04-08T05:49:03.873Z,17.50
2018-04-08T05:50:10.931Z,16.33
2018-04-08T05:51:16.974Z,15.60
2018-04-08T05:52:23.650Z,17.17
2018-04-08T05:53:29.104Z,16.80
2018-04-08T05:56:45.374Z,14.50
2018-04-08T05:57:51.055Z,18.53
2018-04-08T05:58:59.261Z,13.23
2018-04-08T06:00:06.980Z,15.80
2018-04-08T06:01:15.033Z,17.10
2018-04-08T06:02:22.861Z,14.70
2018-04-08T06:03:28.720Z,18.70
2018-04-08T06:04:35.911Z,50.38
2018-04-08T06:05:41.837Z,45.22
2018-04-08T06:06:48.358Z,25.20
2018-04-08T06:07:54.664Z,24.83
2018-04-08T06:09:01.398Z,29.45
2018-04-08T06:10:07.793Z,18.30
2018-04-08T06:11:15.161Z,20.40
2018-04-08T06:12:22.668Z,25.92
2018-04-08T06:13:28.731Z,23.95
2018-04-08T06:14:35.043Z,18.58
2018-04-08T06:15:41.966Z,21.47
2018-04-08T06:16:48.765Z,16.75
2018-04-08T06:17:54.701Z,17.15
2018-04-08T06:19:03.643Z,15.63
2018-04-08T06:20:11.786Z,18.62
2018-04-08T06:21:19.514Z,22.13
2018-04-08T06:22:26.788Z,21.95
2018-04-08T06:23:37.659Z,21.80
2018-04-08T06:24:46.113Z,18.30
2018-04-08T06:25:55.097Z,19.75
2018-04-08T06:27:02.171Z,20.83
2018-04-08T06:28:10.543Z,13.45
2018-04-08T06:29:17.312Z,18.25
2018-04-08T06:30:30.186Z,21.62
2018-04-08T06:31:37.475Z,22.30
2018-04-08T06:32:44.216Z,18.00
2018-04-08T06:33:51.770Z,19.45
2018-04-08T06:34:58.865Z,19.65
2018-04-08T06:36:07.651Z,24.87
2018-04-08T06:37:14.954Z,16.35
2018-04-08T06:38:25.686Z,18.25
2018-04-08T06:39:36.685Z,17.42
2018-04-08T06:40:44.918Z,24.17
2018-04-08T06:41:57.453Z,21.77
2018-04-08T06:43:06.097Z,13.67
2018-04-08T06:44:13.376Z,17.37
2018-04-08T06:45:22.548Z,18.67
2018-04-08T06:46:32.017Z,17.70
2018-04-08T06:47:40.545Z,13.90
2018-04-08T06:48:47.857Z,29.08
2018-04-08T06:49:56.310Z,20.08
2018-04-08T06:51:03.978Z,18.55
2018-04-08T06:52:12.113Z,14.85
2018-04-08T06:53:19.039Z,13.95
2018-04-08T06:54:26.941Z,17.87
2018-04-08T06:55:35.002Z,17.15
2018-04-08T06:56:44.563Z,17.62
2018-04-08T06:57:52.907Z,24.90
2018-04-08T06:59:00.626Z,27.95
2018-04-08T07:00:08.144Z,25.50
2018-04-08T07:01:17.769Z,27.00
2018-04-08T07:02:25.828Z,24.93
2018-04-08T07:03:33.379Z,38.22
2018-04-08T07:04:41.720Z,37.60
2018-04-08T07:05:50.151Z,22.98
2018-04-08T07:06:57.493Z,26.83
2018-04-08T07:08:06.471Z,28.33
2018-04-08T07:09:14.225Z,15.25
2018-04-08T07:10:24.376Z,17.05
2018-04-08T07:11:32.111Z,26.00
2018-04-08T07:12:42.027Z,18.15
2018-04-08T07:13:48.387Z,19.90
2018-04-08T07:14:55.974Z,24.52
2018-04-08T07:16:04.568Z,19.87
2018-04-08T07:17:11.085Z,23.33
2018-04-08T07:18:17.422Z,15.15
2018-04-08T07:19:23.769Z,14.98
2018-04-08T07:20:31.164Z,15.18
2018-04-08T07:21:38.013Z,16.87
2018-04-08T07:22:46.646Z,22.50
2018-04-08T07:23:54.429Z,19.23
2018-04-08T07:25:03.371Z,17.92
2018-04-08T07:26:10.708Z,19.73
2018-04-08T07:27:17.036Z,13.90
2018-04-08T07:28:23.364Z,17.45
2018-04-08T07:29:31.321Z,18.90
2018-04-08T07:30:37.819Z,15.00
2018-04-08T07:31:44.720Z,14.35
2018-04-08T07:32:51.232Z,18.95
2018-04-08T07:33:59.243Z,34.63
2018-04-08T07:35:08.492Z,35.80
2018-04-08T07:36:16.291Z,19.90
2018-04-08T07:37:25.190Z,17.92
2018-04-08T07:38:32.617Z,16.10
2018-04-08T07:39:39.369Z,14.57
2018-04-08T07:40:46.252Z,22.17
2018-04-08T07:41:52.721Z,19.50
2018-04-08T07:43:00.424Z,13.98
2018-04-08T07:44:08.750Z,17.05
2018-04-08T07:45:16.898Z,16.87
2018-04-08T07:46:23.706Z,14.32
2018-04-08T07:47:31.430Z,12.75
2018-04-08T07:48:38.123Z,15.40
2018-04-08T07:49:45.824Z,17.08
2018-04-08T07:50:53.449Z,14.38
2018-04-08T07:52:00.700Z,17.45
2018-04-08T07:53:11.898Z,15.30
2018-04-08T07:54:19.437Z,14.27
2018-04-08T07:55:26.151Z,19.77
2018-04-08T07:56:32.503Z,15.20
2018-04-08T07:57:39.234Z,13.35
2018-04-08T07:58:47.044Z,13.10
2018-04-08T07:59:55.873Z,15.90
2018-04-08T08:01:05.717Z,13.85
2018-04-08T08:02:13.027Z,12.27
2018-04-08T08:03:21.307Z,15.23
2018-04-08T08:04:28.256Z,16.80
2018-04-08T08:05:40.127Z,17.35
2018-04-08T08:06:46.555Z,17.55
2018-04-08T08:07:54.328Z,16.50
2018-04-08T08:09:00.566Z,33.35
2018-04-08T08:10:08.550Z,22.92
2018-04-08T08:11:14.764Z,18.95
2018-04-08T08:12:23.704Z,21.17
2018-04-08T08:13:30.042Z,18.65
2018-04-08T08:14:37.772Z,18.40
2018-04-08T08:15:45.217Z,15.52
2018-04-08T08:16:52.154Z,13.90
2018-04-08T08:17:58.443Z,14.63
2018-04-08T08:19:05.087Z,14.20
2018-04-08T08:20:11.349Z,20.12
2018-04-08T08:21:18.121Z,17.77
2018-04-08T08:22:25.631Z,12.95
2018-04-08T08:23:32.699Z,15.98
2018-04-08T08:24:38.914Z,17.90
2018-04-08T08:25:47.956Z,13.60
2018-04-08T08:26:54.706Z,19.67
2018-04-08T08:28:01.902Z,13.10
2018-04-08T08:29:08.565Z,16.52
2018-04-08T08:30:15.357Z,15.93
2018-04-08T08:31:23.550Z,15.75
2018-04-08T08:32:29.847Z,14.87
2018-04-08T08:33:36.825Z,18.73
2018-04-08T08:34:43.945Z,13.55
2018-04-08T08:35:50.081Z,16.92
2018-04-08T08:36:59.088Z,15.23
2018-04-08T08:38:07.172Z,15.50
2018-04-08T08:39:13.800Z,16.33
2018-04-08T08:40:20.611Z,24.00
2018-04-08T08:41:27.990Z,16.62
2018-04-08T08:42:36.488Z,36.70
2018-04-08T08:43:43.313Z,36.85
2018-04-08T08:44:49.989Z,584.25
2018-04-08T08:45:56.938Z,1036.75
2018-04-08T08:47:05.720Z,2085.80
2018-04-08T08:48:12.728Z,1444.03
2018-04-08T08:49:19.711Z,796.97
2018-04-08T08:50:26.883Z,227.93
2018-04-08T08:51:37.632Z,436.00
2018-04-08T08:52:44.206Z,313.10
2018-04-08T08:53:50.474Z,480.60
2018-04-08T08:54:57.563Z,340.67
2018-04-08T08:56:04.471Z,357.50
2018-04-08T08:57:10.818Z,155.12
2018-04-08T08:58:18.744Z,268.10
2018-04-08T08:59:28.321Z,269.02
2018-04-08T09:00:36.512Z,220.57
2018-04-08T09:01:43.913Z,184.75
2018-04-08T09:02:51.657Z,128.90
2018-04-08T09:04:00.051Z,139.88
2018-04-08T09:05:06.074Z,135.95
2018-04-08T09:06:14.456Z,101.45
2018-04-08T09:07:21.867Z,119.97
2018-04-08T09:08:28.094Z,140.05
2018-04-08T09:09:35.208Z,68.10
2018-04-08T09:10:42.922Z,38.53
2018-04-08T09:11:50.539Z,53.87
2018-04-08T09:12:58.309Z,54.00
2018-04-08T09:14:04.743Z,26.23
2018-04-08T09:15:12.514Z,25.80
2018-04-08T09:16:18.642Z,22.98
2018-04-08T09:17:25.613Z,20.40
2018-04-08T09:18:32.817Z,17.70
2018-04-08T09:19:39.172Z,17.80
2018-04-08T09:20:47.247Z,20.08
2018-04-08T09:21:56.147Z,33.67
2018-04-08T09:23:04.251Z,30.95
2018-04-08T09:24:10.612Z,29.25
2018-04-08T09:25:17.905Z,37.35
2018-04-08T09:26:27.057Z,35.92
2018-04-08T09:27:33.835Z,39.13
2018-04-08T09:28:40.126Z,30.92
2018-04-08T09:29:46.980Z,39.55
2018-04-08T09:30:56.754Z,26.70
2018-04-08T09:32:03.702Z,32.80
2018-04-08T09:33:11.184Z,23.85
2018-04-08T09:34:18.017Z,30.20
2018-04-08T09:35:24.288Z,26.02
2018-04-08T09:36:30.507Z,22.42
2018-04-08T09:37:40.181Z,23.23
2018-04-08T09:38:46.316Z,26.20
2018-04-08T09:39:53.844Z,20.67
2018-04-08T09:41:01.830Z,26.83
2018-04-08T09:42:08.323Z,21.00
2018-04-08T09:43:14.727Z,19.00
2018-04-08T09:44:20.498Z,44.30
2018-04-08T09:45:26.538Z,20.00
2018-04-08T09:46:33.941Z,29.85
2018-04-08T09:47:40.337Z,21.00
2018-04-08T09:48:46.951Z,23.48
2018-04-08T09:49:53.334Z,23.98
2018-04-08T09:50:58.646Z,30.90
2018-04-08T09:52:03.412Z,27.65
2018-04-08T09:53:08.225Z,19.05
2018-04-08T09:54:14.551Z,21.80
2018-04-08T09:55:21.287Z,23.02
2018-04-08T09:56:36.074Z,18.30
2018-04-08T09:57:41.807Z,16.17
2018-04-08T09:58:46.822Z,48.17
2018-04-08T09:59:53.058Z,23.50
2018-04-08T10:01:02.944Z,22.92
2018-04-08T10:02:11.199Z,18.50
2018-04-08T10:03:23.839Z,25.33
2018-04-08T10:04:31.318Z,22.52
2018-04-08T10:05:37.771Z,17.65
2018-04-08T10:06:44.936Z,18.00
2018-04-08T10:07:51.238Z,22.33
2018-04-08T10:08:57.717Z,20.35
2018-04-08T10:10:05.546Z,69.80
2018-04-08T10:11:10.953Z,86.53
2018-04-08T10:12:18.488Z,114.20
2018-04-08T10:13:24.259Z,242.70
2018-04-08T10:14:32.350Z,61.80
2018-04-08T10:15:39.421Z,46.00
2018-04-08T10:16:45.179Z,82.68
2018-04-08T10:17:50.884Z,59.75
2018-04-08T10:18:56.229Z,31.90
2018-04-08T10:20:02.903Z,26.02
2018-04-08T10:21:09.890Z,29.40
2018-04-08T10:22:16.472Z,30.02
2018-04-08T10:23:22.712Z,64.35
2018-04-08T10:24:27.570Z,40.78
2018-04-08T10:25:34.540Z,23.60
2018-04-08T10:26:39.411Z,27.77
2018-04-08T10:27:45.577Z,27.75
2018-04-08T10:28:51.344Z,25.37
2018-04-08T10:29:56.256Z,24.45
2018-04-08T10:31:01.715Z,22.25
2018-04-08T10:32:09.127Z,25.73
2018-04-08T10:33:17.727Z,21.12
2018-04-08T10:34:24.083Z,21.58
2018-04-08T10:35:32.518Z,26.75
2018-04-08T10:36:38.992Z,24.00
2018-04-08T10:37:45.503Z,26.92
2018-04-08T10:38:50.572Z,26.75
2018-04-08T10:39:57.432Z,25.50
2018-04-08T10:41:02.769Z,21.67
2018-04-08T10:42:07.719Z,26.23
2018-04-08T10:43:13.545Z,22.77
2018-04-08T10:44:18.436Z,28.52
2018-04-08T10:45:23.901Z,26.37
2018-04-08T10:46:29.585Z,26.05
2018-04-08T10:47:35.639Z,26.98
2018-04-08T10:49:16.846Z,27.60
2018-04-08T10:50:24.356Z,230.62
2018-04-08T10:51:30.081Z,71.78
2018-04-08T10:52:36.163Z,72.05
2018-04-08T10:53:43.025Z,48.60
2018-04-08T10:54:49.082Z,34.20
2018-04-08T10:55:55.262Z,29.25
2018-04-08T10:57:02.867Z,29.92
2018-04-08T10:58:10.338Z,38.40
2018-04-08T10:59:15.424Z,30.58
2018-04-08T11:00:20.560Z,29.27
2018-04-08T11:01:26.785Z,33.07
2018-04-08T11:02:32.867Z,32.22
2018-04-08T11:03:39.200Z,38.40
2018-04-08T11:04:44.395Z,39.00
2018-04-08T11:05:49.428Z,65.97
2018-04-08T11:06:54.689Z,34.33
2018-04-08T11:08:00.734Z,34.58
2018-04-08T11:09:06.997Z,28.95
2018-04-08T11:10:13.600Z,31.65
2018-04-08T11:11:20.527Z,27.35
2018-04-08T11:12:27.675Z,30.55
2018-04-08T11:13:34.659Z,27.73
2018-04-08T11:14:39.845Z,28.62
2018-04-08T11:15:46.466Z,31.12
2018-04-08T11:16:54.714Z,25.27
2018-04-08T11:18:00.493Z,29.93
2018-04-08T11:19:06.269Z,33.15
2018-04-08T11:20:12.201Z,31.43
2018-04-08T11:21:19.467Z,31.08
2018-04-08T11:22:27.581Z,25.73
2018-04-08T11:23:32.897Z,32.08
2018-04-08T11:24:38.961Z,32.65
2018-04-08T11:25:44.571Z,29.98
2018-04-08T11:26:50.455Z,27.90
2018-04-08T11:27:57.799Z,30.23
2018-04-08T11:29:04.967Z,30.52
2018-04-08T11:30:10.860Z,35.58
2018-04-08T11:31:20.506Z,33.05
2018-04-08T11:32:28.754Z,33.90
2018-04-08T11:33:36.338Z,28.95
2018-04-08T11:34:43.101Z,35.75
2018-04-08T11:35:49.904Z,33.28
2018-04-08T11:36:57.557Z,34.22
2018-04-08T11:38:04.157Z,35.53
2018-04-08T11:39:09.380Z,28.55
2018-04-08T11:40:17.478Z,31.52
2018-04-08T11:41:25.242Z,30.05
2018-04-08T11:42:32.054Z,38.17
2018-04-08T11:43:38.025Z,26.83
2018-04-08T11:44:44.512Z,31.48
2018-04-08T11:45:50.739Z,30.80
2018-04-08T11:46:57.729Z,31.92
2018-04-08T11:48:03.593Z,26.52
2018-04-08T11:49:09.199Z,26.58
2018-04-08T11:50:15.883Z,31.75
2018-04-08T11:51:21.866Z,29.83
2018-04-08T11:52:28.835Z,30.98
2018-04-08T11:53:35.390Z,29.23
2018-04-08T11:54:41.980Z,33.75
2018-04-08T11:55:47.638Z,33.38
2018-04-08T11:56:54.541Z,35.42
2018-04-08T11:58:00.787Z,37.60
2018-04-08T11:59:06.552Z,35.80
2018-04-08T12:00:11.949Z,32.38
2018-04-08T12:01:17.194Z,33.77
2018-04-08T12:02:25.504Z,45.53
2018-04-08T12:03:31.217Z,37.22
2018-04-08T12:04:49.646Z,39.58
2018-04-08T12:05:55.544Z,35.85
2018-04-08T12:07:03.246Z,36.50
2018-04-08T12:08:08.834Z,199.07
2018-04-08T12:09:13.879Z,54.85
2018-04-08T12:10:23.386Z,53.25
2018-04-08T12:11:28.600Z,46.47
2018-04-08T12:12:34.663Z,35.58
2018-04-08T12:13:40.642Z,42.03
2018-04-08T12:14:46.127Z,36.22
2018-04-08T12:15:53.810Z,33.55
2018-04-08T12:17:03.088Z,40.05
2018-04-08T12:18:09.413Z,36.85
2018-04-08T12:19:15.858Z,41.22
2018-04-08T12:20:23.045Z,71.47
2018-04-08T12:21:28.702Z,37.92
2018-04-08T12:22:37.724Z,35.22
2018-04-08T12:23:45.686Z,40.90
2018-04-08T12:24:52.133Z,34.70
2018-04-08T12:25:58.960Z,37.90
2018-04-08T12:27:04.785Z,41.20
2018-04-08T12:28:10.162Z,37.15
2018-04-08T12:29:16.184Z,33.38
2018-04-08T12:30:21.558Z,38.72
2018-04-08T12:31:27.507Z,39.20
2018-04-08T12:32:34.738Z,38.15
2018-04-08T12:33:40.758Z,34.70
2018-04-08T12:34:46.445Z,36.30
2018-04-08T12:35:56.577Z,34.90
2018-04-08T12:37:06.881Z,30.55
2018-04-08T12:38:12.539Z,32.88
2018-04-08T12:39:17.670Z,39.55
2018-04-08T12:40:23.349Z,33.95
2018-04-08T12:41:28.416Z,28.98
2018-04-08T12:42:34.047Z,36.30
2018-04-08T12:43:40.120Z,27.77
2018-04-08T12:44:45.243Z,27.17
2018-04-08T12:45:50.414Z,27.00
2018-04-08T12:46:59.621Z,32.55
2018-04-08T12:48:06.614Z,32.78
2018-04-08T12:49:11.949Z,26.60
2018-04-08T12:50:17.279Z,27.00
2018-04-08T12:51:26.421Z,28.57
2018-04-08T12:52:32.301Z,25.77
2018-04-08T12:53:40.260Z,35.47
2018-04-08T12:54:48.035Z,25.73
2018-04-08T12:55:54.543Z,50.80
2018-04-08T12:56:59.560Z,46.50
2018-04-08T12:58:08.097Z,23.80
2018-04-08T12:59:13.978Z,30.80
2018-04-08T13:00:19.187Z,33.97
2018-04-08T13:01:24.251Z,34.63
2018-04-08T13:02:30.343Z,27.08
2018-04-08T13:03:36.295Z,29.73
2018-04-08T13:04:43.973Z,29.80
2018-04-08T13:05:52.292Z,26.45
2018-04-08T13:06:57.725Z,26.05
2018-04-08T13:08:03.484Z,25.00
2018-04-08T13:09:09.017Z,25.48
2018-04-08T13:10:14.946Z,24.30
2018-04-08T13:11:22.919Z,17.00
2018-04-08T13:12:30.185Z,25.33
2018-04-08T13:13:36.794Z,21.12
2018-04-08T13:14:41.932Z,18.23
2018-04-08T13:15:51.407Z,17.87
2018-04-08T13:16:58.405Z,17.90
2018-04-08T13:18:03.793Z,19.40
2018-04-08T13:19:10.692Z,166.23
2018-04-08T13:20:16.740Z,152.32
2018-04-08T13:21:22.885Z,452.33
2018-04-08T13:22:33.069Z,45.20
2018-04-08T13:23:41.085Z,46.88
2018-04-08T13:24:48.400Z,28.40
2018-04-08T13:25:56.018Z,52.45
2018-04-08T13:27:01.092Z,86.95
2018-04-08T13:28:07.411Z,35.45
2018-04-08T13:29:13.202Z,31.23
2018-04-08T13:30:18.603Z,20.75
2018-04-08T13:31:26.740Z,19.37
2018-04-08T13:32:40.549Z,17.52
2018-04-08T13:33:49.322Z,16.60
2018-04-08T13:34:56.444Z,23.73
2018-04-08T13:36:03.362Z,22.02
2018-04-08T13:37:08.453Z,18.35
2018-04-08T13:38:14.427Z,19.83
2018-04-08T13:39:20.377Z,18.60
2018-04-08T13:40:26.831Z,16.52
2018-04-08T13:41:36.494Z,22.65
2018-04-08T13:42:41.457Z,22.55
2018-04-08T13:43:47.610Z,20.40
2018-04-08T13:44:55.025Z,17.95
2018-04-08T13:46:00.843Z,23.08
2018-04-08T13:47:06.391Z,19.80
2018-04-08T13:48:11.786Z,19.40
2018-04-08T13:49:19.582Z,26.27
2018-04-08T13:50:31.608Z,23.02
2018-04-08T13:51:38.859Z,17.05
2018-04-08T13:52:44.850Z,23.55
2018-04-08T13:53:51.174Z,21.85
2018-04-08T13:55:00.434Z,33.92
2018-04-08T13:56:08.584Z,16.67
2018-04-08T13:57:15.024Z,22.05
2018-04-08T13:58:22.192Z,16.67
2018-04-08T13:59:29.507Z,23.73
2018-04-08T14:00:36.591Z,18.65
2018-04-08T14:01:46.601Z,20.23
2018-04-08T14:02:54.720Z,16.42
2018-04-08T14:04:01.164Z,16.33
2018-04-08T14:05:07.124Z,19.92
2018-04-08T14:06:14.950Z,16.43
2018-04-08T14:07:21.982Z,18.35
2018-04-08T14:08:30.484Z,19.95
2018-04-08T14:09:38.402Z,12.70
2018-04-08T14:10:44.721Z,17.67
2018-04-08T14:11:52.926Z,16.10
2018-04-08T14:12:59.513Z,20.20
2018-04-08T14:14:06.413Z,17.65
2018-04-08T14:15:11.590Z,20.83
2018-04-08T14:16:19.011Z,22.20
2018-04-08T14:17:26.499Z,15.32
2018-04-08T14:18:35.843Z,22.67
2018-04-08T14:19:45.199Z,23.48
2018-04-08T14:20:55.169Z,19.23
2018-04-08T14:22:02.381Z,19.25